Details From LICA - Lamezia Terme
To LIML - Milano Linate
Flight Number -
Tags decoded
Created
Modified
Stats Distance 500 nm / 927 km
Max Altitude 0 ft / 0 m
Waypoints 2
Social Downloads 0
Likes 0
Share

Download

Looking for another format? Having issues loading an existing format? Contact us
Advertisement - Login to hide

Notes

Requested: LICA LIML

Route

LICA LIML

ID Type Via Altitude (ft/m) Position (lat/lon) Dist (leg/tot) Name
O LICA APT - 0 / 0 38.90539 / 16.24227 - / 0 nm Lamezia Terme
O LIML APT - 0 / 0 45.45030 / 9.27280 500 / 500 nm Milano Linate

Altitude Profile

Advertisement - Login to hide

Weather


0- 5 10 15 20 25 30 35+ Temperature / °C

Clouds and Precipitation
Forecast for 2022-05-26 18:00 UTC. Updated an hour ago

Ground ~20,000 ft ~40,000 ft Winds

LICA

Details ICAO LICA (SUF)
Name Lamezia Terme "Sant'Eufemia"
Region Italy
Timezone Europe/Rome (UTC+2.0)
Stats Elevation 39 ft / 12 m (AMSL)
Location 38.905000° 16.245800°
Runways 1
Magnetic Variation 3.932° E

METAR

LICA 261620Z AUTO 10007KT 060V180 9999 NCD 30/11 Q1017

Decode

TAF

TAF AMD LICA 261138Z 2612/2712 26010KT 9999 SCT040 BECMG 2702/2704 08010KT

Decode

Departure Runways

ID Width Length Bearing (true/mag) Surface Threshold Overrun Markings Lighting
10 154 ft / 47 m 9,908 ft / 3,020 m 98.51° / 94.58° ASPHALT 328 ft / 100 m 0 ft / 0 m PREC-APP CENTERLINE EDGE THRESHOLD MALSF REIL-OMNI
28 154 ft / 47 m 9,908 ft / 3,020 m 278.53° / 274.60° ASPHALT 1,224 ft / 373 m 0 ft / 0 m PREC-APP CENTERLINE EDGE THRESHOLD MALSF REIL-OMNI

LIML

Details ICAO LIML (LIN)
Name Milano-Linate "Enrico Forlanini"
Region Italy
Timezone Europe/Rome (UTC+2.0)
Stats Elevation 354 ft / 108 m (AMSL)
Location 45.450300° 9.272810°
Runways 2
Magnetic Variation 3.014° E

METAR

LIML 261620Z 17007KT 140V200 9999 FEW030 28/18 Q1018 NOSIG

Decode

TAF

TAF LIML 261100Z 2612/2712 11007KT 9999 FEW030 PROB40 TEMPO 2614/2620 TSRA TEMPO 2701/2704 4000 BR

Decode

Destination Runways

ID Width Length Bearing (true/mag) Surface Threshold Overrun Markings Lighting
17 72 ft / 22 m 1,974 ft / 602 m 175.66° / 172.65° ASPHALT 0 ft / 0 m 0 ft / 0 m VISUAL
18 197 ft / 60 m 8,019 ft / 2,444 m 175.67° / 172.66° ASPHALT 0 ft / 0 m 200 ft / 61 m PREC-APP CENTERLINE EDGE THRESHOLD ALSF-I REIL-OMNI
35 72 ft / 22 m 1,974 ft / 602 m 355.66° / 352.65° ASPHALT 0 ft / 0 m 0 ft / 0 m VISUAL
36 197 ft / 60 m 8,019 ft / 2,444 m 355.67° / 352.66° ASPHALT 0 ft / 0 m 413 ft / 126 m PREC-APP CENTERLINE EDGE THRESHOLD ALSF-I REIL-OMNI

Approach Navaids

Runway Type Ident Frequency Range Bearing (true/mag) Slope Elevation
36 LOC-ILS ILNT 109.55 MHz 18 nm / 33 km 355.69° / 352.67 ° - 353 ft / 108 m (AMSL)
36 DME ILNT 109.55 MHz 25 nm / 46 km - - 352 ft / 107 m (AMSL)
36 GS ILNT 109.55 MHz 10 nm / 19 km 355.68° / 352.67 ° 3.00° 352 ft / 107 m (AMSL)
36 OM OM - - 355.68° / 352.66 ° - 353 ft / 108 m (AMSL)
36 MM MM - - 355.68° / 352.66 ° - 353 ft / 108 m (AMSL)

Popular Alternatives